MSC Florentina — HPFH — position and weather

sailwx.info

Track history (hours):
 
Tides and Currents Weather Stations Pressure Air Temp Water Temp Dewpoint Dewpoint Depression Visibility Wind Speed Wind Dir Waves Ship Positions

MSC Florentina

Last reported at 2016-Nov-30 15:30 UTC. Time now 2016-Dec-05 14:34 UTC.
Position N 11°12' W 061°21'.

Length 300 m; draft 12.1 m.

Type: Ship (hazmat cat A). MMSI: 352870000.

Date/timePositionNaut miles runAvg speedWind from/ knotsBaromVisibWave heightAir tempDewpointWater temp
2016-Nov-30 15:30N 11°12' W 061°21'  
2016-Nov-23 16:21S 22°54' W 041°12'1518.4
2016-Nov-23 15:33S 23°02' W 041°26'2218.7
2016-Nov-23 14:21S 23°14' W 041°46'25318.4
2016-Nov-23 00:33S 24°16' W 046°15'1313.4
2016-Nov-22 23:33S 24°05' W 046°22'7 7.4
2016-Nov-22 22:33S 23°59' W 046°17'1 0.3
2016-Nov-22 20:21S 23°58' W 046°18'0 0.0
2016-Nov-22 17:03S 23°58' W 046°18'0 0.0
2016-Nov-22 15:33S 23°58' W 046°18'0 0.0
2016-Nov-22 10:33S 23°58' W 046°18'0 0.0
2016-Nov-22 09:21S 23°58' W 046°18'0 0.0
2016-Nov-22 08:33S 23°58' W 046°18'0 0.0
2016-Nov-22 07:33S 23°58' W 046°18'0 0.0
2016-Nov-22 05:33S 23°58' W 046°18'0 0.0
2016-Nov-22 04:18S 23°58' W 046°18'0 0.0
2016-Nov-22 03:33S 23°58' W 046°18'0 0.0
2016-Nov-22 02:33S 23°58' W 046°18'0 0.0
2016-Nov-21 23:27S 23°58' W 046°18'14 2.3
2016-Nov-21 17:33S 24°11' W 046°22'5 1.6
2016-Nov-21 14:31S 24°15' W 046°19'0 0.1
2016-Nov-21 13:31S 24°15' W 046°19'0 0.1
2016-Nov-21 12:32S 24°15' W 046°19'0 0.0
2016-Nov-21 11:33S 24°15' W 046°19'0 0.1
2016-Nov-21 10:33S 24°15' W 046°19'0 0.1
2016-Nov-21 08:29S 24°15' W 046°19'0 0.0
2016-Nov-21 07:33S 24°15' W 046°19'0 0.0
2016-Nov-21 05:33S 24°15' W 046°19'0 0.0
2016-Nov-21 04:30S 24°15' W 046°19'0 0.0
2016-Nov-21 02:33S 24°15' W 046°19'10 5.1
2016-Nov-21 00:33S 24°21' W 046°28'2512.5
2016-Nov-20 22:34S 24°41' W 046°44'  
Track history (hours):
 
Tides and Currents Weather Stations Pressure Air Temp Water Temp Dewpoint Dewpoint Depression Visibility Wind Speed Wind Dir Waves Ship Positions

MSC Florentina

Last reported at 2016-Nov-30 15:30 UTC. Time now 2016-Dec-05 14:34 UTC.
Position N 11°12' W 061°21'.

Length 300 m; draft 12.1 m.

Type: Ship (hazmat cat A). MMSI: 352870000.

Date/timePositionNaut miles runAvg speedWind from/ knotsBaromVisibWave heightAir tempDewpointWater temp
2016-Nov-30 15:30N 11°12' W 061°21'  
2016-Nov-23 16:21S 22°54' W 041°12'1518.4
2016-Nov-23 15:33S 23°02' W 041°26'2218.7
2016-Nov-23 14:21S 23°14' W 041°46'25318.4
2016-Nov-23 00:33S 24°16' W 046°15'1313.4
2016-Nov-22 23:33S 24°05' W 046°22'7 7.4
2016-Nov-22 22:33S 23°59' W 046°17'1 0.3
2016-Nov-22 20:21S 23°58' W 046°18'0 0.0
2016-Nov-22 17:03S 23°58' W 046°18'0 0.0
2016-Nov-22 15:33S 23°58' W 046°18'0 0.0
2016-Nov-22 10:33S 23°58' W 046°18'0 0.0
2016-Nov-22 09:21S 23°58' W 046°18'0 0.0
2016-Nov-22 08:33S 23°58' W 046°18'0 0.0
2016-Nov-22 07:33S 23°58' W 046°18'0 0.0
2016-Nov-22 05:33S 23°58' W 046°18'0 0.0
2016-Nov-22 04:18S 23°58' W 046°18'0 0.0
2016-Nov-22 03:33S 23°58' W 046°18'0 0.0
2016-Nov-22 02:33S 23°58' W 046°18'0 0.0
2016-Nov-21 23:27S 23°58' W 046°18'14 2.3
2016-Nov-21 17:33S 24°11' W 046°22'5 1.6
2016-Nov-21 14:31S 24°15' W 046°19'0 0.1
2016-Nov-21 13:31S 24°15' W 046°19'0 0.1
2016-Nov-21 12:32S 24°15' W 046°19'0 0.0
2016-Nov-21 11:33S 24°15' W 046°19'0 0.1
2016-Nov-21 10:33S 24°15' W 046°19'0 0.1
2016-Nov-21 08:29S 24°15' W 046°19'0 0.0
2016-Nov-21 07:33S 24°15' W 046°19'0 0.0
2016-Nov-21 05:33S 24°15' W 046°19'0 0.0
2016-Nov-21 04:30S 24°15' W 046°19'0 0.0
2016-Nov-21 02:33S 24°15' W 046°19'10 5.1
2016-Nov-21 00:33S 24°21' W 046°28'2512.5
2016-Nov-20 22:34S 24°41' W 046°44'  

Dump ship's entire track history